createdAt,value
2024-04-13T00:01:20.523Z,62.10
2024-04-13T00:03:52.814Z,62.10
2024-04-13T00:06:20.163Z,62.20
2024-04-13T00:08:47.510Z,62.20
2024-04-13T00:11:17.406Z,62.20
2024-04-13T00:13:51.140Z,62.30
2024-04-13T00:16:18.988Z,62.30
2024-04-13T00:18:47.086Z,62.30
2024-04-13T00:21:16.570Z,62.30
2024-04-13T00:23:44.153Z,62.40
2024-04-13T00:26:11.434Z,62.40
2024-04-13T00:28:41.297Z,62.40
2024-04-13T00:31:16.226Z,62.50
2024-04-13T00:33:45.822Z,62.50
2024-04-13T00:36:18.892Z,62.50
2024-04-13T00:38:48.395Z,62.50
2024-04-13T00:41:15.651Z,62.50
2024-04-13T00:43:43.075Z,62.50
2024-04-13T00:46:17.721Z,62.60
2024-04-13T00:48:45.486Z,62.70
2024-04-13T00:51:18.751Z,62.70
2024-04-13T00:53:46.352Z,62.70
2024-04-13T00:56:16.084Z,62.70
2024-04-13T00:58:44.428Z,62.70
2024-04-13T01:01:19.210Z,62.70
2024-04-13T01:03:53.026Z,62.80
2024-04-13T01:06:23.079Z,62.80
2024-04-13T01:08:53.172Z,62.90
2024-04-13T01:11:20.604Z,62.90
2024-04-13T01:13:49.133Z,62.90
2024-04-13T01:16:16.460Z,63.00
2024-04-13T01:18:46.456Z,63.00
2024-04-13T01:21:16.069Z,63.00
2024-04-13T01:24:10.557Z,63.10
2024-04-13T01:26:41.881Z,63.10
2024-04-13T01:29:14.563Z,63.10
2024-04-13T01:31:41.847Z,63.20
2024-04-13T01:34:09.368Z,63.10
2024-04-13T01:36:39.459Z,63.20
2024-04-13T01:39:14.970Z,63.20
2024-04-13T01:41:55.940Z,63.30
2024-04-13T01:44:25.678Z,63.40
2024-04-13T01:46:59.713Z,63.30
2024-04-13T01:49:31.745Z,63.40
2024-04-13T01:51:59.588Z,63.40
2024-04-13T01:54:30.103Z,63.40
2024-04-13T01:56:57.398Z,63.40
2024-04-13T01:59:27.176Z,63.50
2024-04-13T02:01:55.868Z,63.50
2024-04-13T02:04:32.956Z,63.50
2024-04-13T02:07:00.236Z,63.50
2024-04-13T02:09:27.653Z,63.40
2024-04-13T02:11:59.863Z,63.50
2024-04-13T02:14:34.489Z,63.50
2024-04-13T02:17:03.903Z,64.40
2024-04-13T02:19:35.600Z,63.60
2024-04-13T02:22:07.543Z,63.70
2024-04-13T02:24:35.058Z,63.60
2024-04-13T02:27:04.768Z,63.60
2024-04-13T02:29:32.089Z,63.70
2024-04-13T02:32:01.690Z,63.70
2024-04-13T02:34:29.223Z,63.80
2024-04-13T02:36:56.464Z,63.80
2024-04-13T02:39:26.006Z,63.80
2024-04-13T02:41:53.674Z,63.80
2024-04-13T02:44:23.407Z,63.80
2024-04-13T02:46:53.633Z,63.80
2024-04-13T02:49:21.070Z,63.90
2024-04-13T02:51:48.508Z,64.00
2024-04-13T02:54:15.937Z,64.00
2024-04-13T02:56:43.214Z,64.00
2024-04-13T02:59:12.684Z,64.10
2024-04-13T03:01:45.337Z,64.10
2024-04-13T03:04:12.985Z,64.10
2024-04-13T03:06:46.100Z,64.10
2024-04-13T03:09:18.162Z,64.20
2024-04-13T03:11:52.451Z,64.10
2024-04-13T03:14:24.675Z,64.20
2024-04-13T03:16:51.924Z,64.20
2024-04-13T03:19:21.609Z,64.20
2024-04-13T03:21:53.520Z,64.20
2024-04-13T03:24:21.013Z,64.30
2024-04-13T03:26:48.371Z,64.20
2024-04-13T03:29:18.237Z,64.20
2024-04-13T03:31:45.492Z,64.30
2024-04-13T03:34:15.302Z,64.30
2024-04-13T03:36:42.546Z,64.30
2024-04-13T03:39:09.889Z,64.30
2024-04-13T03:41:39.282Z,64.30
2024-04-13T03:44:06.937Z,64.40
2024-04-13T03:46:36.542Z,64.40
2024-04-13T03:49:03.882Z,64.50
2024-04-13T03:51:31.184Z,64.40
2024-04-13T03:53:59.161Z,64.50
2024-04-13T03:56:28.467Z,64.50
2024-04-13T03:58:58.129Z,64.50
2024-04-13T04:01:25.658Z,64.50
2024-04-13T04:03:55.534Z,64.60
2024-04-13T04:06:23.478Z,64.50
2024-04-13T04:08:55.594Z,64.60
2024-04-13T04:11:22.963Z,64.60
2024-04-13T04:13:50.270Z,64.70
2024-04-13T04:16:17.504Z,64.80
2024-04-13T04:18:45.356Z,64.80
2024-04-13T04:21:15.190Z,64.80
2024-04-13T04:23:42.449Z,64.80
2024-04-13T04:26:12.108Z,64.80
2024-04-13T04:28:39.430Z,64.80
2024-04-13T04:31:16.569Z,64.80
2024-04-13T04:33:44.040Z,64.90
2024-04-13T04:36:11.704Z,64.90
2024-04-13T04:38:41.513Z,64.90
2024-04-13T04:41:08.810Z,65.00
2024-04-13T04:43:38.582Z,65.00
2024-04-13T04:46:08.973Z,65.00
2024-04-13T04:48:41.670Z,65.00
2024-04-13T04:51:09.498Z,65.10
2024-04-13T04:53:36.956Z,65.10
2024-04-13T04:56:06.644Z,65.10
2024-04-13T04:58:36.464Z,65.10
2024-04-13T05:01:11.048Z,65.10
2024-04-13T05:03:38.454Z,65.10
2024-04-13T05:06:06.627Z,65.20
2024-04-13T05:08:34.171Z,65.30
2024-04-13T05:11:06.738Z,65.30
2024-04-13T05:13:33.985Z,65.40
2024-04-13T05:16:05.929Z,65.40
2024-04-13T05:18:33.424Z,65.40
2024-04-13T05:21:00.825Z,65.40
2024-04-13T05:23:28.525Z,65.40
2024-04-13T05:25:55.826Z,65.40
2024-04-13T05:28:27.698Z,66.30
2024-04-13T05:30:58.454Z,65.50
2024-04-13T05:33:28.816Z,65.60
2024-04-13T05:36:00.134Z,65.60
2024-04-13T05:38:28.835Z,65.70
2024-04-13T05:40:56.157Z,65.70
2024-04-13T05:43:28.564Z,65.80
2024-04-13T05:45:56.328Z,65.80
2024-04-13T05:48:28.061Z,65.90
2024-04-13T05:51:00.539Z,65.90
2024-04-13T05:53:28.450Z,66.00
2024-04-13T05:55:55.840Z,66.80
2024-04-13T05:58:23.276Z,66.00
2024-04-13T06:00:52.916Z,66.00
2024-04-13T06:03:22.555Z,66.20
2024-04-13T06:05:49.828Z,66.20
2024-04-13T06:08:17.464Z,66.20
2024-04-13T06:10:46.874Z,66.20
2024-04-13T06:13:17.878Z,66.20
2024-04-13T06:15:46.039Z,66.30
2024-04-13T06:18:13.978Z,66.30
2024-04-13T06:20:43.806Z,66.30
2024-04-13T06:23:16.517Z,66.50
2024-04-13T06:25:47.726Z,66.40
2024-04-13T06:28:16.640Z,66.60
2024-04-13T06:30:52.107Z,66.50
2024-04-13T06:33:19.761Z,66.60
2024-04-13T06:35:56.316Z,66.50
2024-04-13T06:38:27.486Z,67.50
2024-04-13T06:40:55.561Z,66.60
2024-04-13T06:43:25.619Z,66.70
2024-04-13T06:45:53.044Z,66.70
2024-04-13T06:48:22.555Z,66.80
2024-04-13T06:50:49.943Z,66.80
2024-04-13T06:53:20.754Z,66.80
2024-04-13T06:55:48.297Z,66.80
2024-04-13T06:58:15.563Z,66.90
2024-04-13T07:00:42.961Z,67.00
2024-04-13T07:03:12.607Z,67.00
2024-04-13T07:05:42.406Z,66.90
2024-04-13T07:08:09.667Z,66.90
2024-04-13T07:10:39.258Z,66.90
2024-04-13T07:13:10.171Z,66.90
2024-04-13T07:15:37.515Z,67.00
2024-04-13T07:18:09.968Z,67.10
2024-04-13T07:20:37.601Z,67.00
2024-04-13T07:23:07.774Z,67.00
2024-04-13T07:25:35.021Z,67.10
2024-04-13T07:28:05.246Z,67.20
2024-04-13T07:30:32.600Z,67.90
2024-04-13T07:32:59.950Z,67.20
2024-04-13T07:35:34.399Z,67.20
2024-04-13T07:38:04.258Z,67.20
2024-04-13T07:40:33.825Z,67.30
2024-04-13T07:43:01.116Z,67.30
2024-04-13T07:45:28.559Z,67.40
2024-04-13T07:47:56.069Z,67.40
2024-04-13T07:50:24.762Z,67.50
2024-04-13T07:52:52.142Z,67.40
2024-04-13T07:55:20.746Z,67.50
2024-04-13T07:57:50.575Z,67.50
2024-04-13T08:00:20.282Z,67.50
2024-04-13T08:02:49.747Z,67.60
2024-04-13T08:05:17.092Z,67.50
2024-04-13T08:07:44.431Z,67.50
2024-04-13T08:10:14.130Z,67.50
2024-04-13T08:12:41.692Z,68.30
2024-04-13T08:15:10.088Z,67.60
2024-04-13T08:17:39.707Z,67.40
2024-04-13T08:20:10.673Z,67.50
2024-04-13T08:22:38.182Z,67.60
2024-04-13T08:25:06.112Z,67.50
2024-04-13T08:27:37.912Z,67.60
2024-04-13T08:30:08.557Z,67.70
2024-04-13T08:32:39.124Z,67.60
2024-04-13T08:35:11.126Z,67.60
2024-04-13T08:37:40.734Z,67.70
2024-04-13T08:40:15.897Z,67.70
2024-04-13T08:42:45.247Z,67.70
2024-04-13T08:45:15.466Z,67.80
2024-04-13T08:47:46.664Z,67.80
2024-04-13T08:50:19.486Z,67.90
2024-04-13T08:52:51.196Z,67.90
2024-04-13T08:55:20.400Z,67.90
2024-04-13T08:57:52.294Z,67.90
2024-04-13T09:00:24.379Z,67.90
2024-04-13T09:02:58.749Z,67.90
2024-04-13T09:05:26.866Z,67.90
2024-04-13T09:07:57.292Z,67.80
2024-04-13T09:10:28.104Z,67.80
2024-04-13T09:12:57.989Z,67.90
2024-04-13T09:15:27.684Z,67.90
2024-04-13T09:17:58.364Z,67.90
2024-04-13T09:20:30.436Z,67.80
2024-04-13T09:22:58.020Z,67.80
2024-04-13T09:25:25.796Z,67.80
2024-04-13T09:28:05.432Z,67.80
2024-04-13T09:30:37.674Z,67.80
2024-04-13T09:33:11.775Z,67.80
2024-04-13T09:35:43.824Z,67.80
2024-04-13T09:38:17.546Z,67.80
2024-04-13T09:40:47.391Z,67.90
2024-04-13T09:43:24.121Z,67.70
2024-04-13T09:46:02.044Z,67.80
2024-04-13T09:48:32.032Z,67.80
2024-04-13T09:51:00.074Z,67.80
2024-04-13T09:53:27.992Z,67.80
2024-04-13T09:55:57.837Z,67.70
2024-04-13T09:58:27.882Z,67.70
2024-04-13T10:01:02.730Z,67.80
2024-04-13T10:03:33.115Z,67.80
2024-04-13T10:06:01.973Z,67.70
2024-04-13T10:08:32.174Z,67.60
2024-04-13T10:11:01.420Z,67.70
2024-04-13T10:13:43.023Z,67.70
2024-04-13T10:16:11.598Z,67.60
2024-04-13T10:18:39.028Z,67.60
2024-04-13T10:21:09.344Z,67.50
2024-04-13T10:23:43.103Z,67.50
2024-04-13T10:26:12.909Z,67.50
2024-04-13T10:28:45.272Z,67.50
2024-04-13T10:31:19.862Z,67.40
2024-04-13T10:33:57.354Z,67.30
2024-04-13T10:36:39.848Z,67.30
2024-04-13T10:39:08.643Z,67.20
2024-04-13T10:41:41.496Z,67.30
2024-04-13T10:44:10.391Z,67.30
2024-04-13T10:46:39.513Z,67.40
2024-04-13T10:49:08.794Z,67.30
2024-04-13T10:51:36.219Z,67.40
2024-04-13T10:54:03.716Z,67.40
2024-04-13T10:56:33.669Z,67.40
2024-04-13T10:59:01.018Z,67.20
2024-04-13T11:01:28.407Z,67.00
2024-04-13T11:04:06.734Z,67.10
2024-04-13T11:06:34.352Z,67.10
2024-04-13T11:09:02.175Z,67.10
2024-04-13T11:11:32.286Z,67.10
2024-04-13T11:13:59.601Z,67.10
2024-04-13T11:16:26.947Z,66.70
2024-04-13T11:18:57.191Z,66.80
2024-04-13T11:21:25.513Z,66.80
2024-04-13T11:23:55.999Z,66.90
2024-04-13T11:26:23.508Z,66.80
2024-04-13T11:28:50.886Z,66.90
2024-04-13T11:31:20.761Z,66.80
2024-04-13T11:33:48.330Z,66.30
2024-04-13T11:36:22.659Z,66.50
2024-04-13T11:38:53.941Z,66.30
2024-04-13T11:41:22.807Z,66.30
2024-04-13T11:43:59.065Z,66.20
2024-04-13T11:46:28.937Z,66.30
2024-04-13T11:48:56.652Z,65.90
2024-04-13T11:51:26.096Z,66.00
2024-04-13T11:53:54.439Z,66.20
2024-04-13T11:56:24.210Z,66.00
2024-04-13T11:58:54.663Z,65.90
2024-04-13T12:01:22.571Z,66.00
2024-04-13T12:03:50.049Z,65.70
2024-04-13T12:06:17.523Z,65.70
2024-04-13T12:08:47.291Z,65.50
2024-04-13T12:11:14.624Z,65.70
2024-04-13T12:13:43.683Z,65.80
2024-04-13T12:16:17.907Z,65.80
2024-04-13T12:18:48.137Z,65.60
2024-04-13T12:21:16.696Z,65.80
2024-04-13T12:23:46.335Z,65.70
2024-04-13T12:26:16.174Z,66.30
2024-04-13T12:28:45.754Z,65.50
2024-04-13T12:31:12.976Z,65.40
2024-04-13T12:33:41.030Z,66.30
2024-04-13T12:36:10.784Z,65.40
2024-04-13T12:38:40.746Z,65.40
2024-04-13T12:41:14.532Z,65.40
2024-04-13T12:43:42.119Z,65.20
2024-04-13T12:46:09.503Z,66.20
2024-04-13T12:48:39.570Z,65.40
2024-04-13T12:51:07.162Z,65.30
2024-04-13T12:53:34.488Z,65.30
2024-04-13T12:56:04.484Z,65.00
2024-04-13T12:58:31.706Z,65.20
2024-04-13T13:00:59.120Z,65.10
2024-04-13T13:03:31.154Z,65.00
2024-04-13T13:06:01.197Z,64.80
2024-04-13T13:08:33.400Z,64.90
2024-04-13T13:11:01.554Z,65.00
2024-04-13T13:13:28.897Z,65.10
2024-04-13T13:15:58.539Z,64.90
2024-04-13T13:18:25.894Z,64.90
2024-04-13T13:20:56.189Z,64.90
2024-04-13T13:23:25.623Z,64.80
2024-04-13T13:25:55.815Z,64.60
2024-04-13T13:28:23.147Z,64.50
2024-04-13T13:30:52.682Z,64.30
2024-04-13T13:33:22.345Z,64.10
2024-04-13T13:35:54.361Z,64.00
2024-04-13T13:38:21.576Z,64.10
2024-04-13T13:40:48.902Z,64.00
2024-04-13T13:43:16.295Z,63.90
2024-04-13T13:45:43.718Z,63.90
2024-04-13T13:48:15.495Z,63.90
2024-04-13T13:50:45.393Z,63.70
2024-04-13T13:53:12.798Z,63.70
2024-04-13T13:55:40.252Z,63.90
2024-04-13T13:58:09.797Z,64.00
2024-04-13T14:00:43.578Z,63.90
2024-04-13T14:03:13.388Z,63.70
2024-04-13T14:05:40.734Z,63.90
2024-04-13T14:08:08.133Z,63.80
2024-04-13T14:10:35.468Z,63.80
2024-04-13T14:13:05.389Z,63.50
2024-04-13T14:15:34.961Z,63.30
2024-04-13T14:18:06.812Z,63.50
2024-04-13T14:20:34.221Z,63.10
2024-04-13T14:23:01.491Z,62.80
2024-04-13T14:25:28.726Z,62.60
2024-04-13T14:27:58.118Z,62.50
2024-04-13T14:30:25.522Z,62.40
2024-04-13T14:32:55.445Z,61.90
2024-04-13T14:35:22.884Z,60.90
2024-04-13T14:37:55.859Z,60.80
2024-04-13T14:40:25.640Z,62.00
2024-04-13T14:42:55.525Z,61.20
2024-04-13T14:45:25.373Z,61.30
2024-04-13T14:47:52.736Z,61.40
2024-04-13T14:50:20.145Z,61.80
2024-04-13T14:52:49.837Z,62.00
2024-04-13T14:55:17.171Z,61.70
2024-04-13T14:57:47.258Z,61.50
2024-04-13T15:00:15.066Z,61.50
2024-04-13T15:02:42.362Z,61.10
2024-04-13T15:05:11.786Z,61.50
2024-04-13T15:07:39.115Z,61.80
2024-04-13T15:10:08.822Z,61.90
2024-04-13T15:12:39.312Z,62.00
2024-04-13T15:15:09.265Z,61.80
2024-04-13T15:17:41.046Z,61.50
2024-04-13T15:20:10.115Z,61.80
2024-04-13T15:22:37.486Z,61.90
2024-04-13T15:25:05.167Z,62.40
2024-04-13T15:27:32.590Z,62.40
2024-04-13T15:30:02.344Z,62.20
2024-04-13T15:32:32.289Z,62.40
2024-04-13T15:35:04.264Z,61.80
2024-04-13T15:37:33.043Z,61.90
2024-04-13T15:40:00.476Z,62.10
2024-04-13T15:42:32.642Z,62.30
2024-04-13T15:45:08.718Z,62.30
2024-04-13T15:47:38.292Z,62.30
2024-04-13T15:50:10.313Z,62.30
2024-04-13T15:52:38.103Z,62.30
2024-04-13T15:55:05.514Z,62.30
2024-04-13T15:57:32.851Z,61.90
2024-04-13T16:00:02.657Z,61.70
2024-04-13T16:02:30.023Z,62.10
2024-04-13T16:05:01.949Z,62.10
2024-04-13T16:07:34.135Z,61.90
2024-04-13T16:10:03.809Z,61.50
2024-04-13T16:12:33.659Z,62.00
2024-04-13T16:15:01.048Z,61.20
2024-04-13T16:17:30.846Z,61.40
2024-04-13T16:19:58.228Z,61.20
2024-04-13T16:22:25.593Z,61.20
2024-04-13T16:24:55.626Z,61.30
2024-04-13T16:27:23.267Z,61.40
2024-04-13T16:29:51.290Z,60.80
2024-04-13T16:32:21.111Z,60.00
2024-04-13T16:34:48.366Z,59.60
2024-04-13T16:37:15.665Z,60.00
2024-04-13T16:39:45.071Z,59.80
2024-04-13T16:42:14.617Z,59.50
2024-04-13T16:44:44.186Z,59.50
2024-04-13T16:47:11.489Z,59.70
2024-04-13T16:49:41.023Z,59.60
2024-04-13T16:52:08.507Z,59.00
2024-04-13T16:54:35.892Z,59.30
2024-04-13T16:57:03.338Z,59.30
2024-04-13T16:59:35.330Z,59.20
2024-04-13T17:02:02.744Z,58.90
2024-04-13T17:04:32.969Z,58.90
2024-04-13T17:07:05.023Z,59.00
2024-04-13T17:09:37.748Z,59.00
2024-04-13T17:12:08.131Z,58.80
2024-04-13T17:14:37.470Z,59.00
2024-04-13T17:17:04.921Z,58.60
2024-04-13T17:19:32.355Z,58.70
2024-04-13T17:22:04.304Z,58.50
2024-04-13T17:24:36.048Z,58.20
2024-04-13T17:27:03.465Z,58.10
2024-04-13T17:29:30.793Z,58.10
2024-04-13T17:31:58.077Z,58.10
2024-04-13T17:34:25.331Z,58.00
2024-04-13T17:36:52.683Z,58.00
2024-04-13T17:39:20.186Z,58.00
2024-04-13T17:41:49.965Z,57.70
2024-04-13T17:44:17.523Z,57.70
2024-04-13T17:46:47.056Z,57.90
2024-04-13T17:49:16.673Z,57.70
2024-04-13T17:51:44.146Z,57.60
2024-04-13T17:54:18.322Z,57.40
2024-04-13T17:56:50.047Z,57.40
2024-04-13T17:59:19.620Z,57.30
2024-04-13T18:01:48.531Z,57.20
2024-04-13T18:04:19.133Z,57.40
2024-04-13T18:06:49.123Z,57.50
2024-04-13T18:09:16.423Z,57.60
2024-04-13T18:11:48.058Z,58.00
2024-04-13T18:14:16.080Z,57.40
2024-04-13T18:16:43.331Z,57.40
2024-04-13T18:19:12.516Z,57.40
2024-04-13T18:21:40.019Z,57.30
2024-04-13T18:24:09.158Z,57.30
2024-04-13T18:26:36.450Z,57.20
2024-04-13T18:29:03.781Z,57.20
2024-04-13T18:31:33.415Z,57.20
2024-04-13T18:34:05.961Z,57.20
2024-04-13T18:36:36.227Z,57.10
2024-04-13T18:39:04.028Z,57.10
2024-04-13T18:41:37.848Z,57.10
2024-04-13T18:44:09.180Z,57.10
2024-04-13T18:46:40.415Z,57.00
2024-04-13T18:49:07.695Z,57.00
2024-04-13T18:51:37.120Z,57.00
2024-04-13T18:54:08.676Z,57.00
2024-04-13T18:56:39.193Z,57.00
2024-04-13T18:59:11.140Z,56.90
2024-04-13T19:01:38.442Z,56.90
2024-04-13T19:04:09.787Z,56.90
2024-04-13T19:06:37.150Z,56.80
2024-04-13T19:09:04.629Z,56.80
2024-04-13T19:11:36.369Z,56.80
2024-04-13T19:14:04.389Z,56.90
2024-04-13T19:16:37.494Z,57.40
2024-04-13T19:19:07.163Z,56.80
2024-04-13T19:21:34.522Z,56.90
2024-04-13T19:24:01.947Z,56.90
2024-04-13T19:26:29.155Z,57.00
2024-04-13T19:28:56.395Z,57.00
2024-04-13T19:31:23.818Z,57.00
2024-04-13T19:33:55.548Z,57.00
2024-04-13T19:36:27.671Z,56.90
2024-04-13T19:38:55.175Z,56.90
2024-04-13T19:41:22.476Z,56.90
2024-04-13T19:43:49.772Z,57.00
2024-04-13T19:46:19.549Z,57.00
2024-04-13T19:48:49.190Z,56.90
2024-04-13T19:51:19.148Z,57.00
2024-04-13T19:53:53.256Z,57.00
2024-04-13T19:56:25.642Z,56.90
2024-04-13T19:58:55.139Z,56.90
2024-04-13T20:01:24.728Z,57.00
2024-04-13T20:03:54.641Z,57.00
2024-04-13T20:06:23.208Z,57.10
2024-04-13T20:08:53.497Z,57.10
2024-04-13T20:11:20.856Z,57.10
2024-04-13T20:13:50.266Z,57.10
2024-04-13T20:16:41.251Z,57.10
2024-04-13T20:19:13.034Z,57.10
2024-04-13T20:21:40.375Z,57.70
2024-04-13T20:24:10.082Z,57.10
2024-04-13T20:26:38.332Z,57.10
2024-04-13T20:29:07.917Z,57.10
2024-04-13T20:31:35.300Z,57.20
2024-04-13T20:34:05.982Z,57.10
2024-04-13T20:36:33.380Z,57.10
2024-04-13T20:39:00.984Z,57.00
2024-04-13T20:41:28.345Z,57.10
2024-04-13T20:43:58.314Z,57.00
2024-04-13T20:46:25.578Z,56.90
2024-04-13T20:48:53.027Z,56.90
2024-04-13T20:51:20.594Z,56.90
2024-04-13T20:53:50.337Z,56.90
2024-04-13T20:56:17.650Z,56.90
2024-04-13T20:58:44.912Z,56.80
2024-04-13T21:01:14.498Z,56.70
2024-04-13T21:03:44.141Z,56.70
2024-04-13T21:06:16.575Z,56.70
2024-04-13T21:08:45.908Z,56.80
2024-04-13T21:11:15.434Z,56.70
2024-04-13T21:13:44.880Z,56.70
2024-04-13T21:16:12.190Z,56.70
2024-04-13T21:18:39.622Z,56.60
2024-04-13T21:21:06.904Z,56.60
2024-04-13T21:23:34.200Z,56.40
2024-04-13T21:26:03.313Z,56.50
2024-04-13T21:28:33.065Z,56.40
2024-04-13T21:31:00.478Z,56.30
2024-04-13T21:33:30.138Z,56.40
2024-04-13T21:35:59.984Z,56.40
2024-04-13T21:38:29.468Z,56.10
2024-04-13T21:40:58.372Z,56.00
2024-04-13T21:43:25.753Z,55.60
2024-04-13T21:45:53.922Z,55.20
2024-04-13T21:48:23.421Z,55.10
2024-04-13T21:50:52.071Z,55.00
2024-04-13T21:53:23.979Z,54.90
2024-04-13T21:55:51.309Z,54.80
2024-04-13T21:58:23.550Z,54.80
2024-04-13T22:00:50.928Z,54.50
2024-04-13T22:03:18.476Z,54.00
2024-04-13T22:05:45.917Z,53.80
2024-04-13T22:08:13.239Z,53.80
2024-04-13T22:10:43.484Z,52.90
2024-04-13T22:13:17.794Z,52.90
2024-04-13T22:15:47.608Z,53.30
2024-04-13T22:18:18.060Z,53.10
2024-04-13T22:20:49.942Z,53.30
2024-04-13T22:23:21.937Z,52.50
2024-04-13T22:25:49.254Z,53.40
2024-04-13T22:28:19.086Z,53.40
2024-04-13T22:30:50.825Z,53.40
2024-04-13T22:33:20.558Z,53.70
2024-04-13T22:35:52.798Z,53.70
2024-04-13T22:38:20.063Z,53.40
2024-04-13T22:40:47.901Z,53.50
2024-04-13T22:43:18.958Z,53.00
2024-04-13T22:45:48.739Z,53.30
2024-04-13T22:48:18.336Z,52.90
2024-04-13T22:50:48.127Z,53.50
2024-04-13T22:53:19.830Z,53.70
2024-04-13T22:55:53.915Z,53.80
2024-04-13T22:58:21.152Z,53.80
2024-04-13T23:00:50.936Z,53.90
2024-04-13T23:03:18.241Z,53.90
2024-04-13T23:06:01.310Z,53.90
2024-04-13T23:08:30.830Z,53.90
2024-04-13T23:10:58.212Z,53.90
2024-04-13T23:13:27.886Z,53.90
2024-04-13T23:15:55.336Z,53.90
2024-04-13T23:18:25.359Z,53.80
2024-04-13T23:20:56.333Z,53.90
2024-04-13T23:23:28.818Z,53.80
2024-04-13T23:25:56.179Z,53.80
2024-04-13T23:28:25.652Z,53.60
2024-04-13T23:31:00.312Z,53.70
2024-04-13T23:33:29.767Z,53.50
2024-04-13T23:36:05.087Z,53.60
2024-04-13T23:38:34.903Z,53.60
2024-04-13T23:41:02.171Z,53.60
2024-04-13T23:43:31.561Z,53.60
2024-04-13T23:46:03.603Z,53.50
2024-04-13T23:48:34.235Z,53.50
2024-04-13T23:51:01.818Z,53.50
2024-04-13T23:53:29.209Z,53.60
2024-04-13T23:55:58.677Z,53.60
2024-04-13T23:58:26.891Z,53.30
